Time;durP1;ratioP1;P1;durP2;ratioP2;P2;SDS_P1;SDS_P2;PMS_P1;PMS_P2;Temp;Humidity;BMP_temperature;BMP_pressure;BME280_temperature;BME280_humidity;BME280_pressure;Samples;Min_cycle;Max_cycle;Signal;HPM_P1;HPM_P2
2021/08/19 00:00:17;227041.00;0.76;392.46;0.00;0.00;0.62;;;;;23.00;1.00;;;;;;2278024;61;1219;-84
2021/08/19 00:02:44;302313.00;1.01;521.90;0.00;0.00;0.62;;;;;22.70;1.00;;;;;;2277712;61;1507;-83
2021/08/19 00:05:12;445106.00;1.48;767.36;0.00;0.00;0.62;;;;;22.30;1.00;;;;;;2278193;61;1078;-82
2021/08/19 00:07:39;341398.00;1.14;589.08;0.00;0.00;0.62;;;;;22.20;1.00;;;;;;2270840;61;1303;-84
2021/08/19 00:10:06;453598.00;1.51;781.97;0.00;0.00;0.62;;;;;22.20;1.00;;;;;;2271045;61;2009;-84
2021/08/19 00:12:33;599944.00;2.00;1034.12;17804.00;0.06;31.47;;;;;22.20;1.00;;;;;;2270857;61;1364;-83
2021/08/19 00:15:00;325494.00;1.08;561.74;0.00;0.00;0.62;;;;;22.40;1.00;;;;;;2278050;61;1190;-84
2021/08/19 00:17:28;440384.00;1.47;759.24;37577.00;0.13;65.70;;;;;22.50;1.00;;;;;;2270926;61;1178;-84
2021/08/19 00:19:55;248077.00;0.83;428.64;0.00;0.00;0.62;;;;;22.60;1.00;;;;;;2278071;61;1211;-85
2021/08/19 00:22:22;483333.00;1.61;833.13;88265.00;0.29;153.31;;;;;22.40;1.00;;;;;;2270717;61;1469;-84
2021/08/19 00:24:49;217917.00;0.73;376.76;0.00;0.00;0.62;;;;;22.30;1.00;;;;;;2278084;61;1118;-83
2021/08/19 00:27:16;142931.00;0.48;247.62;0.00;0.00;0.62;;;;;22.20;1.00;;;;;;2278004;61;1182;-84
2021/08/19 00:29:43;245754.00;0.82;424.65;0.00;0.00;0.62;;;;;22.20;1.00;;;;;;2270179;61;2010;-84
2021/08/19 00:32:10;188858.00;0.63;326.74;0.00;0.00;0.62;;;;;21.80;1.00;;;;;;2267201;61;1373;-84
2021/08/19 00:34:38;266948.00;0.89;461.10;0.00;0.00;0.62;;;;;21.50;1.00;;;;;;2277742;61;1120;-83
2021/08/19 00:37:05;236884.00;0.79;409.39;0.00;0.00;0.62;;;;;21.40;1.00;;;;;;2277659;61;1156;-83
2021/08/19 00:39:32;619732.00;2.07;1068.30;156595.00;0.52;271.17;;;;;21.20;1.00;;;;;;2277580;61;1210;-84
2021/08/19 00:42:00;257142.00;0.86;444.23;13511.00;0.05;24.03;;;;;21.10;1.00;;;;;;2277361;61;1417;-83
2021/08/19 00:44:27;285621.00;0.95;493.20;0.00;0.00;0.62;;;;;21.40;1.00;;;;;;2277782;61;1120;-83
2021/08/19 00:46:53;300551.00;1.00;518.87;0.00;0.00;0.62;;;;;21.50;1.00;;;;;;2278016;61;1211;-84
2021/08/19 00:49:20;321718.00;1.07;555.25;0.00;0.00;0.62;;;;;21.60;1.00;;;;;;2270502;61;1097;-84
2021/08/19 00:51:52;214296.00;0.71;370.53;14785.00;0.05;26.24;;;;;21.90;1.00;;;;;;2270314;61;2017;-83
2021/08/19 00:54:22;380176.00;1.27;655.73;0.00;0.00;0.62;;;;;22.00;1.00;;;;;;2278128;61;1298;-84
2021/08/19 00:56:54;458517.00;1.53;790.43;0.00;0.00;0.62;;;;;22.20;1.00;;;;;;2271142;61;1200;-84
2021/08/19 00:59:23;272784.00;0.91;471.13;0.00;0.00;0.62;;;;;22.30;1.00;;;;;;2271192;61;1151;-85
2021/08/19 01:01:50;299045.00;1.00;516.28;0.00;0.00;0.62;;;;;22.30;1.00;;;;;;2267268;61;1378;-85
2021/08/19 01:04:17;302439.00;1.01;522.11;0.00;0.00;0.62;;;;;22.30;1.00;;;;;;2271184;61;1164;-84
2021/08/19 01:06:44;572813.00;1.91;987.30;107203.00;0.36;186.00;;;;;22.50;1.00;;;;;;2271088;61;1273;-84
2021/08/19 01:09:12;276365.00;0.92;477.29;0.00;0.00;0.62;;;;;22.60;1.00;;;;;;2274429;61;1160;-84
2021/08/19 01:11:41;291598.00;0.97;503.48;0.00;0.00;0.62;;;;;22.60;1.00;;;;;;2277967;61;1998;-84
2021/08/19 01:14:09;285880.00;0.95;493.65;0.00;0.00;0.62;;;;;22.50;1.00;;;;;;2271277;61;1188;-84
2021/08/19 01:16:36;277791.00;0.93;479.74;0.00;0.00;0.62;;;;;22.60;1.00;;;;;;2271407;61;1267;-84
2021/08/19 01:19:03;369841.00;1.23;637.96;0.00;0.00;0.62;;;;;22.80;1.00;;;;;;2278709;61;1199;-83
2021/08/19 01:21:30;213183.00;0.71;368.61;0.00;0.00;0.62;;;;;22.80;1.00;;;;;;2278474;61;1076;-84
2021/08/19 01:23:58;428852.00;1.43;739.41;0.00;0.00;0.62;;;;;23.00;1.00;;;;;;2271198;61;1335;-85
2021/08/19 01:26:28;322500.00;1.08;556.60;0.00;0.00;0.62;;;;;23.00;1.00;;;;;;2271533;61;1160;-84
2021/08/19 01:28:56;390864.00;1.30;674.10;0.00;0.00;0.62;;;;;22.80;1.00;;;;;;2271262;61;1180;-84
2021/08/19 01:31:25;479396.00;1.60;826.36;0.00;0.00;0.62;;;;;22.60;1.00;;;;;;2271121;61;1930;-83
2021/08/19 01:33:52;250826.00;0.84;433.37;0.00;0.00;0.62;;;;;22.70;1.00;;;;;;2271215;61;1435;-84
2021/08/19 01:36:19;420489.00;1.40;725.03;0.00;0.00;0.62;;;;;22.80;1.00;;;;;;2278434;61;1121;-84
2021/08/19 01:38:49;336620.00;1.12;580.86;0.00;0.00;0.62;;;;;22.60;1.00;;;;;;2271209;61;1279;-84
2021/08/19 01:41:15;249931.00;0.83;431.83;0.00;0.00;0.62;;;;;22.40;1.00;;;;;;2279810;61;1271;-84
2021/08/19 01:43:44;189880.00;0.63;328.50;0.00;0.00;0.62;;;;;22.40;1.00;;;;;;2280741;61;1412;-84
2021/08/19 01:46:14;189714.00;0.63;328.22;0.00;0.00;0.62;;;;;22.30;1.00;;;;;;2280612;61;1398;-84
2021/08/19 01:48:43;323886.00;1.08;558.98;0.00;0.00;0.62;;;;;22.30;1.00;;;;;;2271651;61;1192;-84
2021/08/19 01:56:40;264202.00;0.88;456.37;0.00;0.00;0.62;;;;;22.20;1.00;;;;;;2283905;60;1375;-84
2021/08/19 01:59:07;5916.00;0.02;10.87;0.00;0.00;0.62;;;;;22.30;1.00;;;;;;2276295;61;1383;-83
2021/08/19 02:01:35;0.00;0.00;0.62;0.00;0.00;0.62;;;;;22.20;1.00;;;;;;2277923;61;1251;-83
2021/08/19 02:04:04;0.00;0.00;0.62;0.00;0.00;0.62;;;;;22.10;1.00;;;;;;2277383;61;1119;-83
2021/08/19 02:06:31;0.00;0.00;0.62;0.00;0.00;0.62;;;;;22.00;1.00;;;;;;2277912;61;1132;-84
2021/08/19 02:08:58;0.00;0.00;0.62;0.00;0.00;0.62;;;;;22.00;1.00;;;;;;2277699;61;1104;-83
2021/08/19 02:11:25;0.00;0.00;0.62;0.00;0.00;0.62;;;;;22.10;1.00;;;;;;2274283;61;1951;-83
2021/08/19 02:13:52;23337.00;0.08;41.05;0.00;0.00;0.62;;;;;21.70;1.00;;;;;;2277861;61;1471;-83
2021/08/19 02:16:19;0.00;0.00;0.62;0.00;0.00;0.62;;;;;21.70;1.00;;;;;;2278381;61;1190;-84
2021/08/19 02:18:47;63247.00;0.21;110.09;0.00;0.00;0.62;;;;;21.90;1.00;;;;;;2277692;61;1236;-84
2021/08/19 02:21:14;0.00;0.00;0.62;0.00;0.00;0.62;;;;;21.90;1.00;;;;;;2277459;61;1155;-83
2021/08/19 02:23:41;9149.00;0.03;16.47;0.00;0.00;0.62;;;;;21.60;1.00;;;;;;2274246;61;1447;-83
2021/08/19 02:26:08;0.00;0.00;0.62;0.00;0.00;0.62;;;;;21.30;1.00;;;;;;2273880;61;1240;-84
2021/08/19 02:28:35;0.00;0.00;0.62;0.00;0.00;0.62;;;;;21.40;1.00;;;;;;2273529;61;1542;-84
2021/08/19 02:31:02;22446.00;0.07;39.51;0.00;0.00;0.62;;;;;21.40;1.00;;;;;;2273206;61;2006;-83
2021/08/19 02:33:29;0.00;0.00;0.62;0.00;0.00;0.62;;;;;21.40;1.00;;;;;;2274252;61;1308;-83
2021/08/19 02:35:57;0.00;0.00;0.62;0.00;0.00;0.62;;;;;21.50;1.00;;;;;;2270318;61;1139;-84
2021/08/19 02:38:24;0.00;0.00;0.62;0.00;0.00;0.62;;;;;21.60;1.00;;;;;;2272812;61;1257;-84
2021/08/19 02:40:51;0.00;0.00;0.62;0.00;0.00;0.62;;;;;21.60;1.00;;;;;;2273715;61;1196;-83
2021/08/19 02:43:18;19193.00;0.06;33.87;0.00;0.00;0.62;;;;;21.40;1.00;;;;;;2271833;61;1372;-87
2021/08/19 02:45:45;91008.00;0.30;158.05;0.00;0.00;0.62;;;;;21.40;1.00;;;;;;2276664;61;967;-86
2021/08/19 02:48:12;0.00;0.00;0.62;0.00;0.00;0.62;;;;;21.40;1.00;;;;;;2279084;61;1155;-83
2021/08/19 02:50:39;0.00;0.00;0.62;0.00;0.00;0.62;;;;;21.20;1.00;;;;;;2277456;61;1998;-83
2021/08/19 02:53:07;107161.00;0.36;185.93;0.00;0.00;0.62;;;;;21.20;1.00;;;;;;2277883;61;1362;-84
2021/08/19 02:55:34;0.00;0.00;0.62;0.00;0.00;0.62;;;;;21.10;1.00;;;;;;2278121;61;1135;-83
2021/08/19 02:58:01;19999.00;0.07;35.27;0.00;0.00;0.62;;;;;21.20;1.00;;;;;;2270357;61;1255;-84
2021/08/19 03:00:28;9135.00;0.03;16.45;0.00;0.00;0.62;;;;;21.30;1.00;;;;;;2278221;61;1135;-84
2021/08/19 03:02:55;0.00;0.00;0.62;0.00;0.00;0.62;;;;;21.40;1.00;;;;;;2277687;61;1420;-84
2021/08/19 03:05:22;0.00;0.00;0.62;0.00;0.00;0.62;;;;;21.60;1.00;;;;;;2277942;61;1073;-84
2021/08/19 03:07:49;0.00;0.00;0.62;0.00;0.00;0.62;;;;;21.40;1.00;;;;;;2277989;61;1163;-86
2021/08/19 03:10:17;216043.00;0.72;373.53;59120.00;0.20;102.96;;;;;21.30;1.00;;;;;;2273006;61;1075;-86
2021/08/19 03:12:44;0.00;0.00;0.62;0.00;0.00;0.62;;;;;21.40;1.00;;;;;;2280109;61;1997;-86
2021/08/19 03:15:12;0.00;0.00;0.62;0.00;0.00;0.62;;;;;21.50;1.00;;;;;;2275377;61;1112;-86
2021/08/19 03:17:39;0.00;0.00;0.62;0.00;0.00;0.62;;;;;21.50;1.00;;;;;;2272146;61;1009;-86
2021/08/19 03:20:09;0.00;0.00;0.62;0.00;0.00;0.62;;;;;21.40;1.00;;;;;;2268977;60;957;-85
2021/08/19 03:22:37;0.00;0.00;0.62;0.00;0.00;0.62;;;;;21.40;1.00;;;;;;2272417;61;1455;-86
2021/08/19 03:25:07;0.00;0.00;0.62;0.00;0.00;0.62;;;;;21.50;1.00;;;;;;2269065;61;1264;-86
2021/08/19 03:27:35;0.00;0.00;0.62;0.00;0.00;0.62;;;;;21.40;1.00;;;;;;2275890;61;1026;-86
2021/08/19 03:30:02;0.00;0.00;0.62;0.00;0.00;0.62;;;;;21.40;1.00;;;;;;2275872;60;1121;-86
2021/08/19 03:32:29;0.00;0.00;0.62;0.00;0.00;0.62;;;;;21.50;1.00;;;;;;2276465;61;2013;-87
2021/08/19 03:34:56;0.00;0.00;0.62;0.00;0.00;0.62;;;;;21.40;1.00;;;;;;2279993;61;1128;-86
2021/08/19 03:37:24;0.00;0.00;0.62;0.00;0.00;0.62;;;;;21.30;1.00;;;;;;2280171;61;1191;-87
2021/08/19 03:39:51;9800.00;0.03;17.60;0.00;0.00;0.62;;;;;21.40;1.00;;;;;;2279375;61;1082;-87
2021/08/19 03:42:19;0.00;0.00;0.62;0.00;0.00;0.62;;;;;21.40;1.00;;;;;;2273207;61;1309;-87
2021/08/19 03:44:48;0.00;0.00;0.62;0.00;0.00;0.62;;;;;21.70;1.00;;;;;;2273178;61;981;-87
2021/08/19 03:47:15;0.00;0.00;0.62;0.00;0.00;0.62;;;;;21.60;1.00;;;;;;2280118;61;1121;-86
2021/08/19 03:49:42;0.00;0.00;0.62;0.00;0.00;0.62;;;;;21.70;1.00;;;;;;2273082;61;1243;-86
2021/08/19 03:52:09;0.00;0.00;0.62;0.00;0.00;0.62;;;;;21.70;1.00;;;;;;2273078;61;2004;-86
2021/08/19 03:54:36;0.00;0.00;0.62;0.00;0.00;0.62;;;;;21.60;1.00;;;;;;2276457;61;1133;-86
2021/08/19 03:57:03;8030.00;0.03;14.54;0.00;0.00;0.62;;;;;21.40;1.00;;;;;;2279959;61;1143;-87
2021/08/19 03:59:30;0.00;0.00;0.62;0.00;0.00;0.62;;;;;21.30;1.00;;;;;;2271606;61;1021;-87
2021/08/19 04:01:58;0.00;0.00;0.62;0.00;0.00;0.62;;;;;21.20;1.00;;;;;;2267892;61;1405;-87
2021/08/19 04:04:25;0.00;0.00;0.62;0.00;0.00;0.62;;;;;21.30;1.00;;;;;;2268167;61;1149;-87
2021/08/19 04:06:52;0.00;0.00;0.62;0.00;0.00;0.62;;;;;21.20;1.00;;;;;;2267479;61;954;-87
2021/08/19 04:09:19;0.00;0.00;0.62;0.00;0.00;0.62;;;;;21.10;1.00;;;;;;2263206;61;1066;-86
2021/08/19 04:11:46;0.00;0.00;0.62;0.00;0.00;0.62;;;;;21.20;1.00;;;;;;2260132;61;1916;-86
2021/08/19 04:14:13;0.00;0.00;0.62;0.00;0.00;0.62;;;;;21.50;1.00;;;;;;2260050;61;1073;-87
2021/08/19 04:16:40;0.00;0.00;0.62;0.00;0.00;0.62;;;;;21.40;1.00;;;;;;2260565;61;1092;-87
2021/08/19 04:19:08;0.00;0.00;0.62;0.00;0.00;0.62;;;;;21.20;1.00;;;;;;2260811;61;986;-86
2021/08/19 04:21:35;0.00;0.00;0.62;0.00;0.00;0.62;;;;;20.90;1.00;;;;;;2264064;61;1157;-86
2021/08/19 04:24:02;13216.00;0.04;23.52;0.00;0.00;0.62;;;;;20.70;1.00;;;;;;2260067;61;1540;-87
2021/08/19 04:26:29;55355.00;0.18;96.45;0.00;0.00;0.62;;;;;20.70;1.00;;;;;;2264936;61;1188;-85
2021/08/19 04:28:56;0.00;0.00;0.62;0.00;0.00;0.62;;;;;20.50;1.00;;;;;;2268916;61;1145;-87
2021/08/19 04:31:23;31986.00;0.11;56.02;0.00;0.00;0.62;;;;;20.30;1.00;;;;;;2275319;61;1991;-86
2021/08/19 04:33:50;180923.00;0.60;313.08;12568.00;0.04;22.40;;;;;20.40;1.00;;;;;;2265463;61;1328;-85
2021/08/19 04:36:18;0.00;0.00;0.62;0.00;0.00;0.62;;;;;20.40;1.00;;;;;;2274583;61;1081;-85
2021/08/19 04:38:45;0.00;0.00;0.62;0.00;0.00;0.62;;;;;20.50;1.00;;;;;;2268648;61;1131;-85
2021/08/19 04:41:12;0.00;0.00;0.62;0.00;0.00;0.62;;;;;20.80;1.00;;;;;;2269471;61;1077;-85
2021/08/19 04:43:39;589.00;0.00;1.64;0.00;0.00;0.62;;;;;20.80;1.00;;;;;;2279674;61;1484;-85
2021/08/19 04:46:05;68765.00;0.23;119.63;0.00;0.00;0.62;;;;;20.80;1.00;;;;;;2273137;61;969;-86
2021/08/19 04:48:32;0.00;0.00;0.62;0.00;0.00;0.62;;;;;21.10;1.00;;;;;;2280364;61;965;-86
2021/08/19 04:50:59;292406.00;0.97;504.87;26162.00;0.09;45.94;;;;;21.40;1.00;;;;;;2280326;61;1907;-86
2021/08/19 04:53:27;29525.00;0.10;51.76;0.00;0.00;0.62;;;;;21.40;1.00;;;;;;2276146;60;1438;-85
2021/08/19 04:55:54;0.00;0.00;0.62;0.00;0.00;0.62;;;;;21.00;1.00;;;;;;2279827;61;1152;-86
2021/08/19 04:58:21;0.00;0.00;0.62;0.00;0.00;0.62;;;;;20.80;1.00;;;;;;2271605;61;1063;-86
2021/08/19 05:00:48;12825.00;0.04;22.84;0.00;0.00;0.62;;;;;21.20;1.00;;;;;;2264251;61;991;-86
2021/08/19 05:03:16;0.00;0.00;0.62;0.00;0.00;0.62;;;;;21.20;1.00;;;;;;2264615;61;1253;-86
2021/08/19 05:05:43;0.00;0.00;0.62;0.00;0.00;0.62;;;;;21.10;1.00;;;;;;2271421;61;1160;-86
2021/08/19 05:08:09;0.00;0.00;0.62;0.00;0.00;0.62;;;;;20.80;1.00;;;;;;2270486;61;1089;-86
2021/08/19 05:10:38;0.00;0.00;0.62;0.00;0.00;0.62;;;;;20.50;1.00;;;;;;2264641;61;1025;-86
2021/08/19 05:13:04;0.00;0.00;0.62;0.00;0.00;0.62;;;;;20.40;1.00;;;;;;2264971;61;1928;-86
2021/08/19 05:15:31;0.00;0.00;0.62;0.00;0.00;0.62;;;;;20.30;1.00;;;;;;2272402;61;1093;-86
2021/08/19 05:17:59;0.00;0.00;0.62;0.00;0.00;0.62;;;;;20.20;1.00;;;;;;2273134;61;1062;-86
2021/08/19 05:20:26;0.00;0.00;0.62;0.00;0.00;0.62;;;;;20.00;1.00;;;;;;2280242;61;1139;-86
2021/08/19 05:22:53;0.00;0.00;0.62;0.00;0.00;0.62;;;;;20.10;1.00;;;;;;2276343;60;1345;-86
2021/08/19 05:25:20;0.00;0.00;0.62;0.00;0.00;0.62;;;;;20.00;1.00;;;;;;2273098;61;1069;-84
2021/08/19 05:27:48;37156.00;0.12;64.97;0.00;0.00;0.62;;;;;20.20;1.00;;;;;;2279640;61;986;-83
2021/08/19 05:30:15;0.00;0.00;0.62;0.00;0.00;0.62;;;;;20.30;1.00;;;;;;2280193;61;1081;-85
2021/08/19 05:32:42;0.00;0.00;0.62;0.00;0.00;0.62;;;;;20.40;1.00;;;;;;2279934;61;1907;-86
2021/08/19 05:35:10;10849.00;0.04;19.42;0.00;0.00;0.62;;;;;20.70;1.00;;;;;;2276187;61;982;-85
2021/08/19 05:37:37;0.00;0.00;0.62;0.00;0.00;0.62;;;;;20.60;1.00;;;;;;2280136;61;923;-85
2021/08/19 05:40:04;62737.00;0.21;109.21;0.00;0.00;0.62;;;;;20.60;1.00;;;;;;2280114;60;1069;-85
2021/08/19 05:42:31;6631.00;0.02;12.11;0.00;0.00;0.62;;;;;20.50;1.00;;;;;;2280434;60;1445;-86
2021/08/19 05:44:59;0.00;0.00;0.62;0.00;0.00;0.62;;;;;20.40;1.00;;;;;;2273260;60;987;-85
2021/08/19 05:47:26;0.00;0.00;0.62;0.00;0.00;0.62;;;;;20.50;1.00;;;;;;2273680;60;1239;-86
2021/08/19 05:49:53;0.00;0.00;0.62;0.00;0.00;0.62;;;;;20.50;1.00;;;;;;2273669;60;1056;-85
2021/08/19 05:52:20;0.00;0.00;0.62;0.00;0.00;0.62;;;;;20.60;1.00;;;;;;2272919;60;2006;-85
2021/08/19 05:54:47;32664.00;0.11;57.19;0.00;0.00;0.62;;;;;20.80;1.00;;;;;;2270268;60;1045;-86
2021/08/19 05:57:16;0.00;0.00;0.62;0.00;0.00;0.62;;;;;21.10;1.00;;;;;;2270233;61;1160;-86
2021/08/19 05:59:43;0.00;0.00;0.62;0.00;0.00;0.62;;;;;21.40;1.00;;;;;;2272125;61;1098;-86
2021/08/19 06:02:12;0.00;0.00;0.62;0.00;0.00;0.62;;;;;21.70;1.00;;;;;;2272048;61;1302;-86
2021/08/19 06:04:39;99105.00;0.33;172.03;32662.00;0.11;57.19;;;;;21.80;1.00;;;;;;2271844;61;1319;-86
2021/08/19 06:07:06;0.00;0.00;0.62;0.00;0.00;0.62;;;;;21.70;1.00;;;;;;2272243;61;1165;-86
2021/08/19 06:09:34;0.00;0.00;0.62;0.00;0.00;0.62;;;;;22.00;1.00;;;;;;2272212;61;1165;-86
2021/08/19 06:12:01;0.00;0.00;0.62;0.00;0.00;0.62;;;;;22.10;1.00;;;;;;2272108;61;1917;-86
2021/08/19 06:14:28;0.00;0.00;0.62;0.00;0.00;0.62;;;;;21.80;1.00;;;;;;2272200;61;1115;-86
2021/08/19 06:16:55;0.00;0.00;0.62;0.00;0.00;0.62;;;;;21.50;1.00;;;;;;2273116;61;1109;-86
2021/08/19 06:19:23;0.00;0.00;0.62;0.00;0.00;0.62;;;;;21.20;1.00;;;;;;2280016;60;981;-85
2021/08/19 06:21:50;0.00;0.00;0.62;0.00;0.00;0.62;;;;;21.10;1.00;;;;;;2280136;61;1359;-85
2021/08/19 06:24:17;0.00;0.00;0.62;0.00;0.00;0.62;;;;;21.00;1.00;;;;;;2280380;61;1141;-85
2021/08/19 06:26:44;5986.00;0.02;10.99;0.00;0.00;0.62;;;;;21.00;1.00;;;;;;2272984;61;1070;-87
2021/08/19 06:29:11;0.00;0.00;0.62;0.00;0.00;0.62;;;;;21.10;1.00;;;;;;2280446;61;1116;-86
2021/08/19 06:31:38;63212.00;0.21;110.03;0.00;0.00;0.62;;;;;21.00;1.00;;;;;;2276434;61;2004;-85
2021/08/19 06:34:05;0.00;0.00;0.62;0.00;0.00;0.62;;;;;21.00;1.00;;;;;;2273325;61;1235;-85
2021/08/19 06:36:33;0.00;0.00;0.62;0.00;0.00;0.62;;;;;20.90;1.00;;;;;;2273244;61;1124;-85
2021/08/19 06:39:00;31927.00;0.11;55.92;0.00;0.00;0.62;;;;;20.90;1.00;;;;;;2276741;60;1078;-86
2021/08/19 06:41:27;0.00;0.00;0.62;0.00;0.00;0.62;;;;;21.20;1.00;;;;;;2283437;60;1088;-86
2021/08/19 06:43:55;0.00;0.00;0.62;0.00;0.00;0.62;;;;;21.30;1.00;;;;;;2276440;61;1482;-86
2021/08/19 06:46:22;62009.00;0.21;107.95;0.00;0.00;0.62;;;;;21.00;1.00;;;;;;2280481;61;906;-86
2021/08/19 06:48:49;0.00;0.00;0.62;0.00;0.00;0.62;;;;;21.00;1.00;;;;;;2280046;61;981;-85
2021/08/19 06:51:16;0.00;0.00;0.62;0.00;0.00;0.62;;;;;20.80;1.00;;;;;;2276440;60;1260;-86
2021/08/19 06:53:44;44102.00;0.15;76.98;0.00;0.00;0.62;;;;;20.90;1.00;;;;;;2279657;61;2019;-87
2021/08/19 06:56:12;2727.00;0.01;5.35;0.00;0.00;0.62;;;;;20.80;1.00;;;;;;2279945;61;1060;-86
2021/08/19 06:58:39;0.00;0.00;0.62;0.00;0.00;0.62;;;;;21.00;1.00;;;;;;2279745;61;1043;-86
2021/08/19 07:01:06;0.00;0.00;0.62;0.00;0.00;0.62;;;;;21.10;1.00;;;;;;2279571;61;1151;-87
2021/08/19 07:03:33;0.00;0.00;0.62;0.00;0.00;0.62;;;;;21.20;1.00;;;;;;2279579;61;1454;-87
2021/08/19 07:06:00;0.00;0.00;0.62;0.00;0.00;0.62;;;;;21.20;1.00;;;;;;2272779;61;1268;-87
2021/08/19 07:08:27;0.00;0.00;0.62;0.00;0.00;0.62;;;;;21.10;1.00;;;;;;2272622;61;1138;-86
2021/08/19 07:10:55;306190.00;1.02;528.56;172785.00;0.58;299.06;;;;;21.00;1.00;;;;;;2272851;61;1069;-87
2021/08/19 07:13:22;111178.00;0.37;192.86;0.00;0.00;0.62;;;;;20.90;1.00;;;;;;2275714;61;2018;-87
2021/08/19 07:15:49;0.00;0.00;0.62;0.00;0.00;0.62;;;;;20.80;1.00;;;;;;2268070;61;923;-87
2021/08/19 07:18:16;49083.00;0.16;85.60;0.00;0.00;0.62;;;;;21.00;1.00;;;;;;2259723;61;973;-86
2021/08/19 07:20:43;0.00;0.00;0.62;0.00;0.00;0.62;;;;;21.40;1.00;;;;;;2259838;61;1164;-87
2021/08/19 07:23:10;0.00;0.00;0.62;0.00;0.00;0.62;;;;;21.70;1.00;;;;;;2256339;61;1338;-87
2021/08/19 07:25:37;8552.00;0.03;15.44;0.00;0.00;0.62;;;;;22.00;1.00;;;;;;2256388;61;976;-87
2021/08/19 07:28:05;48868.00;0.16;85.23;0.00;0.00;0.62;;;;;22.50;1.00;;;;;;2259808;61;1042;-86
2021/08/19 07:30:32;594190.00;1.98;1024.19;82502.00;0.28;143.36;;;;;22.60;1.00;;;;;;2256991;61;1054;-87
2021/08/19 07:33:00;25847.00;0.09;45.39;0.00;0.00;0.62;;;;;22.70;1.00;;;;;;2261445;61;1998;-87
2021/08/19 07:35:28;0.00;0.00;0.62;0.00;0.00;0.62;;;;;22.80;1.00;;;;;;2272975;61;1060;-87
2021/08/19 07:37:56;54658.00;0.18;95.24;0.00;0.00;0.62;;;;;23.00;1.00;;;;;;2276791;61;972;-87
2021/08/19 07:40:25;0.00;0.00;0.62;0.00;0.00;0.62;;;;;23.10;1.00;;;;;;2279648;61;1005;-88
2021/08/19 07:42:53;0.00;0.00;0.62;0.00;0.00;0.62;;;;;23.30;1.00;;;;;;2279888;61;1399;-87
2021/08/19 07:45:23;0.00;0.00;0.62;0.00;0.00;0.62;;;;;23.40;1.00;;;;;;2276750;60;996;-85
2021/08/19 07:47:50;0.00;0.00;0.62;0.00;0.00;0.62;;;;;23.30;1.00;;;;;;2276743;61;1012;-86
2021/08/19 07:50:18;0.00;0.00;0.62;0.00;0.00;0.62;;;;;23.00;1.00;;;;;;2273384;61;945;-86
2021/08/19 07:52:45;105393.00;0.35;182.88;39657.00;0.13;69.29;;;;;22.90;1.00;;;;;;2279995;60;2024;-86
2021/08/19 07:55:13;0.00;0.00;0.62;0.00;0.00;0.62;;;;;22.90;1.00;;;;;;2273224;61;1179;-86
2021/08/19 07:57:42;76197.00;0.25;132.47;0.00;0.00;0.62;;;;;23.30;1.00;;;;;;2280056;60;966;-85
2021/08/19 08:00:10;0.00;0.00;0.62;0.00;0.00;0.62;;;;;23.60;1.00;;;;;;2267652;61;946;-85
2021/08/19 08:02:38;0.00;0.00;0.62;0.00;0.00;0.62;;;;;23.90;1.00;;;;;;2267653;61;1424;-85
2021/08/19 08:05:06;49020.00;0.16;85.49;0.00;0.00;0.62;;;;;24.00;1.00;;;;;;2261071;61;978;-85
2021/08/19 08:07:33;0.00;0.00;0.62;0.00;0.00;0.62;;;;;24.10;1.00;;;;;;2259616;61;955;-86
2021/08/19 08:10:01;0.00;0.00;0.62;0.00;0.00;0.62;;;;;24.20;1.00;;;;;;2260245;61;987;-86
2021/08/19 08:12:28;0.00;0.00;0.62;0.00;0.00;0.62;;;;;24.40;1.00;;;;;;2259535;61;2005;-85
2021/08/19 08:14:55;46709.00;0.16;81.49;0.00;0.00;0.62;;;;;24.50;1.00;;;;;;2262839;61;1069;-85
2021/08/19 08:17:22;0.00;0.00;0.62;0.00;0.00;0.62;;;;;24.90;1.00;;;;;;2263391;61;1037;-84
2021/08/19 08:19:50;0.00;0.00;0.62;0.00;0.00;0.62;;;;;25.40;1.00;;;;;;2260383;61;971;-85
2021/08/19 08:22:18;0.00;0.00;0.62;0.00;0.00;0.62;;;;;25.50;1.00;;;;;;2260084;61;1370;-86
2021/08/19 08:24:46;8823.00;0.03;15.91;0.00;0.00;0.62;;;;;25.30;1.00;;;;;;2264569;61;1030;-86
2021/08/19 08:27:12;49722.00;0.17;86.71;0.00;0.00;0.62;;;;;25.50;1.00;;;;;;2272718;61;987;-86
2021/08/19 08:29:40;0.00;0.00;0.62;0.00;0.00;0.62;;;;;26.20;1.00;;;;;;2280010;61;1147;-85
2021/08/19 08:32:07;0.00;0.00;0.62;0.00;0.00;0.62;;;;;26.70;1.00;;;;;;2276524;61;1996;-85
2021/08/19 08:34:34;0.00;0.00;0.62;0.00;0.00;0.62;;;;;27.50;1.00;;;;;;2283200;60;1069;-86
2021/08/19 08:37:03;13312.00;0.04;23.69;0.00;0.00;0.62;;;;;27.80;1.00;;;;;;2275775;60;1002;-86
2021/08/19 08:39:32;0.00;0.00;0.62;0.00;0.00;0.62;;;;;27.70;1.00;;;;;;2271701;61;960;-86
2021/08/19 08:41:59;75661.00;0.25;131.54;0.00;0.00;0.62;;;;;27.90;1.00;;;;;;2268334;61;1335;-86
2021/08/19 08:44:28;17433.00;0.06;30.82;0.00;0.00;0.62;;;;;28.40;1.00;;;;;;2265074;61;966;-86
2021/08/19 08:46:55;0.00;0.00;0.62;0.00;0.00;0.62;;;;;28.30;1.00;;;;;;2259641;61;968;-86
2021/08/19 08:49:24;0.00;0.00;0.62;0.00;0.00;0.62;;;;;28.50;1.00;;;;;;2259654;61;1126;-87
2021/08/19 08:51:56;25439.00;0.08;44.69;0.00;0.00;0.62;;;;;28.70;1.00;;;;;;2262783;61;1298;-86
2021/08/19 08:54:25;67029.00;0.22;116.63;0.00;0.00;0.62;;;;;28.70;1.00;;;;;;2261065;61;1926;-87
2021/08/19 08:56:52;27421.00;0.09;48.12;0.00;0.00;0.62;;;;;28.60;1.00;;;;;;2268373;61;1101;-87
2021/08/19 08:59:19;0.00;0.00;0.62;0.00;0.00;0.62;;;;;28.90;1.00;;;;;;2271738;61;1227;-86
2021/08/19 09:01:46;66897.00;0.22;116.40;0.00;0.00;0.62;;;;;29.00;1.00;;;;;;2271646;61;1378;-86
2021/08/19 09:04:13;0.00;0.00;0.62;0.00;0.00;0.62;;;;;29.30;1.00;;;;;;2273208;61;1148;-86
2021/08/19 09:06:42;274249.00;0.91;473.65;143709.00;0.48;248.96;;;;;29.60;1.00;;;;;;2280258;61;1148;-86
2021/08/19 09:09:18;14515.00;0.05;25.77;0.00;0.00;0.62;;;;;29.60;1.00;;;;;;2280208;61;1118;-87
2021/08/19 09:11:47;265036.00;0.88;457.81;90194.00;0.30;156.64;;;;;28.70;1.00;;;;;;2280200;61;1452;-86
2021/08/19 09:14:20;97223.00;0.32;168.78;0.00;0.00;0.62;;;;;28.60;1.00;;;;;;2280341;61;2000;-87
2021/08/19 09:16:47;0.00;0.00;0.62;0.00;0.00;0.62;;;;;28.60;1.00;;;;;;2280899;61;1040;-86
2021/08/19 09:19:16;7671.00;0.03;13.91;0.00;0.00;0.62;;;;;28.40;1.00;;;;;;2281015;61;913;-87
2021/08/19 09:21:49;0.00;0.00;0.62;0.00;0.00;0.62;;;;;28.60;1.00;;;;;;2280541;61;1464;-86
2021/08/19 09:24:18;0.00;0.00;0.62;0.00;0.00;0.62;;;;;28.30;1.00;;;;;;2281005;61;927;-85
2021/08/19 09:26:47;0.00;0.00;0.62;0.00;0.00;0.62;;;;;28.20;1.00;;;;;;2283881;60;1010;-84
2021/08/19 09:29:19;0.00;0.00;0.62;0.00;0.00;0.62;;;;;28.00;1.00;;;;;;2281008;61;957;-86
2021/08/19 09:31:46;0.00;0.00;0.62;0.00;0.00;0.62;;;;;27.80;1.00;;;;;;2280964;61;1449;-87
2021/08/19 09:34:14;0.00;0.00;0.62;0.00;0.00;0.62;;;;;27.90;1.00;;;;;;2280449;61;2009;-87
2021/08/19 09:36:41;323788.00;1.08;558.81;55103.00;0.18;96.01;;;;;28.40;1.00;;;;;;2279748;61;1033;-85
2021/08/19 09:39:09;39723.00;0.13;69.41;0.00;0.00;0.62;;;;;28.80;1.00;;;;;;2279033;61;1256;-84
2021/08/19 09:41:55;146716.00;0.49;254.15;0.00;0.00;0.62;;;;;28.70;1.00;;;;;;2279179;61;1115;-84
2021/08/19 09:44:31;221.00;0.00;1.00;0.00;0.00;0.62;;;;;28.70;1.00;;;;;;2279337;61;1068;-84
2021/08/19 09:46:58;121537.00;0.41;210.73;0.00;0.00;0.62;;;;;28.90;1.00;;;;;;2277903;61;1080;-84
2021/08/19 09:49:28;291466.00;0.97;503.25;0.00;0.00;0.62;;;;;28.80;1.00;;;;;;2271365;61;1171;-84
2021/08/19 09:52:03;393205.00;1.31;678.12;15106.00;0.05;26.79;;;;;28.80;1.00;;;;;;2279562;61;1300;-85
2021/08/19 09:54:31;318935.00;1.06;550.47;9396.00;0.03;16.90;;;;;29.20;1.00;;;;;;2269749;61;2009;-83
2021/08/19 09:57:00;666037.00;2.22;1148.39;62103.00;0.21;108.11;;;;;29.00;1.00;;;;;;2268364;61;1056;-84
2021/08/19 09:59:28;593500.00;1.98;1023.00;36998.00;0.12;64.69;;;;;28.60;1.00;;;;;;2267519;61;1255;-81
2021/08/19 10:01:57;651549.00;2.17;1123.32;0.00;0.00;0.62;;;;;28.50;1.00;;;;;;2270726;61;1408;-83
2021/08/19 10:04:26;617232.00;2.06;1063.98;0.00;0.00;0.62;;;;;28.00;1.00;;;;;;2268924;61;1156;-85
2021/08/19 10:06:53;508173.00;1.69;875.90;0.00;0.00;0.62;;;;;28.40;1.00;;;;;;2272977;61;1109;-84
2021/08/19 10:09:21;683313.00;2.28;1178.31;67915.00;0.23;118.16;;;;;28.60;1.00;;;;;;2273257;61;1081;-84
2021/08/19 10:11:49;536491.00;1.79;924.68;47301.00;0.16;82.52;;;;;28.80;1.00;;;;;;2263010;61;1417;-84
2021/08/19 10:14:19;721639.00;2.41;1244.78;24496.00;0.08;43.05;;;;;28.80;1.00;;;;;;2273091;61;1934;-84
2021/08/19 10:16:48;347535.00;1.16;599.62;0.00;0.00;0.62;;;;;28.70;1.00;;;;;;2272544;61;1172;-84
2021/08/19 10:19:20;373244.00;1.24;643.81;3501.00;0.01;6.69;;;;;28.70;1.00;;;;;;2273754;61;1191;-83
2021/08/19 10:21:51;552951.00;1.84;953.05;0.00;0.00;0.62;;;;;28.70;1.00;;;;;;2276336;61;1330;-84
2021/08/19 10:24:24;607904.00;2.03;1047.87;0.00;0.00;0.62;;;;;28.70;1.00;;;;;;2278993;61;1644;-84
2021/08/19 10:27:10;538519.00;1.80;928.17;0.00;0.00;0.62;;;;;28.70;1.00;;;;;;2278397;61;1167;-84
2021/08/19 10:29:48;0.00;0.00;0.62;0.00;0.00;0.62;;;;;28.60;1.00;;;;;;2278497;61;1129;-84